.
WxDataArchive / Data Records for 2012-01-15
2012-01-14 January 2012 2012-01-16

Data Records for Sunday, 15 January 2012

Time	Temp	Chill	HIndex	Humid	Dewpt	 Wind 	HiWind	WindDir	Rain 	Barom 
-----	----	-----	------	-----	-----	------	------	-------	-----	----- 
00:00	14.4	14.4	14.4	74	7.7	0	0	---	0.00	30.280 
00:05	14.1	14.1	14.1	75	7.7	0	0	---	0.00	30.280 
00:10	13.6	13.6	13.6	75	7.2	0	0	---	0.00	30.280 
00:15	13.3	13.3	13.3	76	7.2	0	0	---	0.00	30.280 
00:20	12.9	12.9	12.9	76	6.8	0	0	---	0.00	30.280 
00:25	12.6	12.6	12.6	77	6.8	0	0	---	0.00	30.280 
00:30	12.3	12.3	12.3	77	6.5	0	0	---	0.00	30.288 
00:35	11.9	11.9	11.9	77	6.1	0	0	---	0.00	30.288 
00:40	11.7	11.7	11.7	78	6.2	0	0	---	0.00	30.288 
00:45	11.4	11.4	11.4	78	5.9	0	0	---	0.00	30.290 
00:50	11.1	11.1	11.1	79	5.9	0	0	---	0.00	30.290 
00:55	10.9	10.9	10.9	80	6.0	0	0	---	0.00	30.290 
01:00	10.7	10.7	10.7	80	5.8	0	0	---	0.00	30.294 
01:05	10.5	10.5	10.5	80	5.6	0	0	---	0.00	30.294 
01:10	10.4	10.4	10.4	81	5.7	0	0	---	0.00	30.294 
01:15	10.2	10.2	10.2	81	5.6	0	0	---	0.00	30.302 
01:20	10.2	10.2	10.2	81	5.6	0	0	---	0.00	30.302 
01:25	10.0	10.0	10.0	81	5.4	0	0	---	0.00	30.302 
01:30	9.7	9.7	9.7	81	5.1	0	0	---	0.00	30.302 
01:35	9.5	9.5	9.5	81	4.9	0	0	---	0.00	30.302 
01:40	9.3	9.3	9.3	82	4.9	0	0	---	0.00	30.302 
01:45	9.2	9.2	9.2	82	4.8	0	0	---	0.00	30.304 
01:50	9.0	9.0	9.0	82	4.6	0	0	---	0.00	30.304 
01:55	9.0	9.0	9.0	83	4.9	0	0	---	0.00	30.304 
02:00	9.0	9.0	9.0	83	4.9	0	0	---	0.00	30.313 
02:05	9.0	9.0	9.0	83	4.9	0	0	---	0.00	30.313 
02:10	8.8	8.8	8.8	83	4.7	0	0	---	0.00	30.313 
02:15	8.8	8.8	8.8	83	4.7	0	0	---	0.00	30.325 
02:20	8.6	8.6	8.6	83	4.5	0	0	---	0.00	30.325 
02:25	8.6	8.6	8.6	83	4.5	0	0	---	0.00	30.325 
02:30	8.4	8.4	8.4	83	4.3	0	0	---	0.00	30.333 
02:35	8.3	8.3	8.3	83	4.2	0	0	---	0.00	30.333 
02:40	8.4	8.4	8.4	84	4.6	0	0	---	0.00	30.333 
02:45	8.4	8.4	8.4	84	4.6	0	0	---	0.00	30.341 
02:50	8.6	8.6	8.6	84	4.8	0	0	---	0.00	30.341 
02:55	8.8	8.8	8.8	84	5.0	0	0	---	0.00	30.341 
03:00	9.0	9.0	9.0	84	5.2	0	0	---	0.00	30.341 
03:05	9.2	9.2	9.2	84	5.4	0	0	---	0.00	30.341 
03:10	9.3	9.3	9.3	85	5.7	0	0	---	0.00	30.341 
03:15	9.5	9.5	9.5	85	5.9	0	0	---	0.00	30.340 
03:20	9.9	9.9	9.9	85	6.3	0	0	---	0.00	30.340 
03:25	9.9	9.9	9.9	85	6.3	0	0	---	0.00	30.340 
03:30	10.0	10.0	10.0	85	6.4	0	0	---	0.00	30.352 
03:35	10.2	10.2	10.2	85	6.6	0	0	---	0.00	30.352 
03:40	10.4	10.4	10.4	86	7.1	0	0	---	0.00	30.352 
03:45	10.5	10.5	10.5	86	7.2	0	0	---	0.00	30.357 
03:50	10.7	10.7	10.7	86	7.4	0	0	---	0.00	30.357 
03:55	10.7	10.7	10.7	86	7.4	0	0	---	0.00	30.357 
04:00	10.7	10.7	10.7	86	7.4	0	0	---	0.00	30.356 
04:05	10.7	10.7	10.7	86	7.4	0	0	---	0.00	30.356 
04:10	10.5	10.5	10.5	85	6.9	0	0	---	0.00	30.356 
04:15	10.5	10.5	10.5	85	6.9	0	0	---	0.00	30.361 
04:20	10.4	10.4	10.4	85	6.8	0	0	---	0.00	30.361 
04:25	10.2	10.2	10.2	85	6.6	0	0	---	0.00	30.361 
04:30	10.2	10.2	10.2	85	6.6	0	0	---	0.00	30.369 
04:35	10.0	10.0	10.0	85	6.4	0	0	---	0.00	30.369 
04:40	10.0	10.0	10.0	85	6.4	0	0	---	0.00	30.369 
04:45	9.9	9.9	9.9	85	6.3	0	0	---	0.00	30.374 
04:50	9.9	9.9	9.9	85	6.3	0	0	---	0.00	30.374 
04:55	9.9	9.9	9.9	86	6.6	0	0	---	0.00	30.374 
05:00	10.0	10.0	10.0	85	6.4	0	0	---	0.00	30.375 
05:05	9.9	9.9	9.9	85	6.3	0	0	---	0.00	30.375 
05:10	9.9	9.9	9.9	85	6.3	0	0	---	0.00	30.375 
05:15	9.9	9.9	9.9	85	6.3	0	0	---	0.00	30.388 
05:20	9.7	9.7	9.7	85	6.1	0	0	---	0.00	30.388 
05:25	9.7	9.7	9.7	85	6.1	0	0	---	0.00	30.388 
05:30	9.5	9.5	9.5	85	5.9	0	0	---	0.00	30.386 
05:35	9.3	9.3	9.3	85	5.7	0	0	---	0.00	30.386 
05:40	9.2	9.2	9.2	85	5.6	0	0	---	0.00	30.386 
05:45	9.2	9.2	9.2	85	5.6	0	0	---	0.00	30.395 
05:50	9.0	9.0	9.0	85	5.4	0	0	---	0.00	30.395 
05:55	8.8	8.8	8.8	85	5.2	0	0	---	0.00	30.395 
06:00	8.8	8.8	8.8	85	5.2	0	0	---	0.00	30.404 
06:05	8.6	8.6	8.6	85	5.0	0	0	---	0.00	30.404 
06:10	8.4	8.4	8.4	84	4.6	0	0	---	0.00	30.404 
06:15	8.4	8.4	8.4	85	4.8	0	0	---	0.00	30.413 
06:20	8.3	8.3	8.3	84	4.5	0	0	---	0.00	30.413 
06:25	8.1	8.1	8.1	84	4.3	0	0	---	0.00	30.413 
06:30	7.9	7.9	7.9	84	4.1	0	0	---	0.00	30.424 
06:35	7.9	7.9	7.9	84	4.1	0	0	---	0.00	30.424 
06:40	7.7	7.7	7.7	84	3.9	0	0	---	0.00	30.424 
06:45	7.6	7.6	7.6	84	3.8	0	0	---	0.00	30.431 
06:50	7.4	7.4	7.4	84	3.6	0	0	---	0.00	30.431 
06:55	7.0	7.0	7.0	84	3.2	0	0	---	0.00	30.431 
07:00	6.9	6.9	6.9	84	3.1	0	0	---	0.00	30.435 
07:05	6.9	6.9	6.9	84	3.1	0	0	---	0.00	30.435 
07:10	6.9	6.9	6.9	84	3.1	0	0	---	0.00	30.435 
07:15	6.9	6.9	6.9	84	3.1	0	0	---	0.00	30.440 
07:20	6.9	6.9	6.9	84	3.1	0	0	---	0.00	30.440 
07:25	6.7	6.7	6.7	84	2.9	0	0	---	0.00	30.440 
07:30	6.7	6.7	6.7	84	2.9	0	0	---	0.00	30.440 
07:35	6.5	6.5	6.5	84	2.7	0	0	---	0.00	30.440 
07:40	6.3	6.3	6.3	84	2.5	0	0	---	0.00	30.440 
07:45	6.3	6.3	6.3	84	2.5	0	0	---	0.00	30.440 
07:50	6.1	6.1	6.1	84	2.3	0	0	---	0.00	30.440 
07:55	6.0	6.0	6.0	84	2.2	0	0	---	0.00	30.440 
08:00	6.0	6.0	6.0	84	2.2	0	0	---	0.00	30.443 
08:05	6.0	6.0	6.0	84	2.2	0	0	---	0.00	30.443 
08:10	6.0	6.0	6.0	84	2.2	0	0	---	0.00	30.443 
08:15	6.0	6.0	6.0	84	2.2	0	0	---	0.00	30.459 
08:20	6.0	6.0	6.0	84	2.2	0	0	---	0.00	30.459 
08:25	6.0	6.0	6.0	84	2.2	0	0	---	0.00	30.459 
08:30	6.1	6.1	6.1	84	2.3	0	0	---	0.00	30.450 
08:35	6.3	6.3	6.3	84	2.5	0	0	---	0.00	30.450 
08:40	6.7	6.7	6.7	84	2.9	0	0	---	0.00	30.450 
08:45	7.0	7.0	7.0	84	3.2	0	0	---	0.00	30.467 
08:50	7.4	7.4	7.4	85	3.9	0	0	---	0.00	30.467 
08:55	7.7	7.7	7.7	85	4.2	0	0	---	0.00	30.467 
09:00	8.1	8.1	8.1	85	4.5	0	0	---	0.00	30.465 
09:05	8.6	8.6	8.6	85	5.0	0	0	---	0.00	30.465 
09:10	9.0	9.0	9.0	85	5.4	0	0	---	0.00	30.465 
09:15	9.5	9.5	9.5	86	6.2	0	0	---	0.00	30.456 
09:20	10.2	10.2	10.2	86	6.9	0	1	270	0.00	30.456 
09:25	10.7	10.7	10.7	86	7.4	0	1	270	0.00	30.456 
09:30	11.1	11.1	11.1	86	7.7	0	0	---	0.00	30.469 
09:35	11.6	11.6	11.6	86	8.2	0	0	---	0.00	30.469 
09:40	12.1	12.1	12.1	87	9.0	0	0	---	0.00	30.469 
09:45	12.6	12.6	12.6	87	9.5	0	0	---	0.00	30.487 
09:50	13.3	13.3	13.3	87	10.2	0	1	45	0.00	30.487 
09:55	13.6	13.6	13.6	86	10.2	0	1	45	0.00	30.487 
10:00	14.0	14.0	14.0	86	10.6	0	0	---	0.00	30.487 
10:05	14.3	14.3	14.3	86	10.9	0	1	45	0.00	30.487 
10:10	14.8	14.8	14.8	85	11.1	0	2	45	0.00	30.487 
10:15	15.1	15.1	15.1	85	11.4	0	2	45	0.00	30.493 
10:20	15.4	15.4	15.4	83	11.2	1	4	90	0.00	30.493 
10:25	15.7	15.7	15.7	81	10.9	1	3	68	0.00	30.493 
10:30	16.1	16.1	16.1	81	11.3	0	1	68	0.00	30.495 
10:35	16.4	16.4	16.4	81	11.6	0	2	68	0.00	30.495 
10:40	16.7	16.7	16.7	78	11.1	0	2	68	0.00	30.495 
10:45	17.0	17.0	17.0	78	11.3	0	2	68	0.00	30.494 
10:50	17.3	17.3	17.3	77	11.3	0	3	68	0.00	30.494 
10:55	17.5	17.5	17.5	75	11.0	1	4	68	0.00	30.494 
11:00	17.7	17.7	17.7	74	10.8	1	3	90	0.00	30.489 
11:05	17.8	17.8	17.8	74	10.9	0	3	90	0.00	30.489 
11:10	18.1	18.1	18.1	73	10.9	0	2	90	0.00	30.489 
11:15	18.3	18.3	18.3	73	11.1	0	2	90	0.00	30.491 
11:20	18.4	18.4	18.4	71	10.6	1	2	90	0.00	30.491 
11:25	18.6	18.6	18.6	70	10.5	0	2	90	0.00	30.491 
11:30	18.6	18.6	18.6	69	10.2	0	2	90	0.00	30.490 
11:35	18.9	18.9	18.9	69	10.4	1	3	90	0.00	30.490 
11:40	18.9	18.9	18.9	68	10.1	1	4	112	0.00	30.490 
11:45	19.1	19.1	19.1	68	10.3	0	3	112	0.00	30.486 
11:50	19.4	19.4	19.4	68	10.6	0	2	112	0.00	30.486 
11:55	19.4	19.4	19.4	67	10.3	1	5	112	0.00	30.486 
12:00	19.4	19.4	19.4	67	10.3	1	3	112	0.00	30.475 
12:05	19.5	19.5	19.5	68	10.7	0	3	112	0.00	30.475 
12:10	19.7	19.7	19.7	67	10.5	1	5	112	0.00	30.475 
12:15	19.7	19.7	19.7	66	10.2	2	5	112	0.00	30.468 
12:20	19.5	19.5	19.5	67	10.4	1	3	112	0.00	30.468 
12:25	19.9	19.9	19.9	68	11.1	0	3	112	0.00	30.468 
12:30	20.0	20.0	20.0	67	10.8	2	4	112	0.00	30.459 
12:35	20.2	20.2	20.2	67	11.0	1	4	90	0.00	30.459 
12:40	20.2	20.2	20.2	67	11.0	1	5	90	0.00	30.459 
12:45	20.2	20.2	20.2	67	11.0	2	5	90	0.00	30.446 
12:50	20.0	20.0	20.0	66	10.5	2	5	90	0.00	30.446 
12:55	20.0	20.0	20.0	67	10.8	1	7	68	0.00	30.446 
13:00	20.2	20.2	20.2	67	11.0	1	4	112	0.00	30.439 
13:05	20.3	20.3	20.3	67	11.1	1	3	112	0.00	30.439 
13:10	20.5	20.5	20.5	67	11.3	1	4	112	0.00	30.439 
13:15	20.6	20.6	20.6	67	11.4	1	3	90	0.00	30.443 
13:20	20.8	20.8	20.8	66	11.3	1	3	112	0.00	30.443 
13:25	20.8	20.8	20.8	66	11.3	1	3	112	0.00	30.443 
13:30	21.0	21.0	21.0	66	11.5	1	4	112	0.00	30.436 
13:35	21.1	21.1	21.1	66	11.5	2	6	112	0.00	30.436 
13:40	21.3	21.3	21.3	65	11.4	1	5	90	0.00	30.436 
13:45	21.4	21.4	21.4	65	11.5	1	3	90	0.00	30.444 
13:50	21.6	21.6	21.6	64	11.3	1	6	112	0.00	30.444 
13:55	21.8	21.8	21.8	64	11.5	1	4	68	0.00	30.444 
14:00	21.9	21.9	21.9	63	11.3	1	4	68	0.00	30.458 
14:05	22.1	22.1	22.1	62	11.1	1	4	68	0.00	30.458 
14:10	22.5	22.5	22.5	62	11.5	0	2	68	0.00	30.458 
14:15	22.5	22.5	22.5	59	10.4	1	3	112	0.00	30.450 
14:20	22.5	22.5	22.5	59	10.4	1	3	0	0.00	30.450 
14:25	22.7	22.7	22.7	59	10.6	0	3	135	0.00	30.450 
14:30	22.9	22.9	22.9	59	10.7	1	4	270	0.00	30.449 
14:35	23.2	23.2	23.2	60	11.4	0	3	270	0.00	30.449 
14:40	23.2	23.2	23.2	58	10.6	1	4	68	0.00	30.449 
14:45	23.3	23.3	23.3	59	11.1	0	2	45	0.00	30.448 
14:50	23.3	23.3	23.3	58	10.7	1	4	45	0.00	30.448 
14:55	23.3	23.3	23.3	58	10.7	1	4	90	0.00	30.448 
15:00	23.5	23.5	23.5	58	10.9	1	3	90	0.00	30.448 
15:05	23.5	23.5	23.5	58	10.9	1	2	90	0.00	30.448 
15:10	23.6	23.6	23.6	58	11.0	0	2	90	0.00	30.448 
15:15	23.8	23.8	23.8	58	11.2	0	3	90	0.00	30.445 
15:20	23.9	23.9	23.9	58	11.3	0	2	45	0.00	30.445 
15:25	23.9	23.9	23.9	58	11.3	1	2	45	0.00	30.445 
15:30	23.9	23.9	23.9	57	10.9	1	5	90	0.00	30.438 
15:35	23.9	23.9	23.9	56	10.5	1	4	90	0.00	30.438 
15:40	24.1	24.1	24.1	57	11.1	0	2	90	0.00	30.438 
15:45	24.2	24.2	24.2	55	10.4	1	3	90	0.00	30.431 
15:50	24.2	24.2	24.2	54	10.0	1	4	112	0.00	30.431 
15:55	24.2	24.2	24.2	54	10.0	1	3	112	0.00	30.431 
16:00	24.2	24.2	24.2	54	10.0	0	2	90	0.00	30.423 
16:05	24.2	24.2	24.2	55	10.4	1	3	90	0.00	30.423 
16:10	24.2	24.2	24.2	56	10.8	1	4	112	0.00	30.423 
16:15	24.1	24.1	24.1	58	11.5	1	4	112	0.00	30.416 
16:20	24.1	24.1	24.1	58	11.5	1	2	112	0.00	30.416 
16:25	24.1	24.1	24.1	58	11.5	1	3	90	0.00	30.416 
16:30	23.9	23.9	23.9	58	11.3	1	4	90	0.00	30.418 
16:35	23.9	23.9	23.9	58	11.3	1	3	112	0.00	30.418 
16:40	23.9	23.9	23.9	58	11.3	1	4	90	0.00	30.418 
16:45	23.9	23.9	23.9	58	11.3	1	3	90	0.00	30.416 
16:50	23.9	23.9	23.9	58	11.3	1	4	90	0.00	30.416 
16:55	23.9	23.9	23.9	58	11.3	1	3	135	0.00	30.416 
17:00	23.9	23.9	23.9	58	11.3	1	3	112	0.00	30.420 
17:05	23.8	23.8	23.8	58	11.2	1	2	90	0.00	30.420 
17:10	23.8	23.8	23.8	59	11.6	0	2	90	0.00	30.420 
17:15	23.6	23.6	23.6	60	11.8	0	2	90	0.00	30.422 
17:20	23.5	23.5	23.5	60	11.7	0	2	90	0.00	30.422 
17:25	23.2	23.2	23.2	61	11.8	0	1	90	0.00	30.422 
17:30	23.0	23.0	23.0	62	11.9	0	2	90	0.00	30.419 
17:35	22.9	22.9	22.9	62	11.9	0	1	90	0.00	30.419 
17:40	22.5	22.5	22.5	63	11.8	0	1	90	0.00	30.419 
17:45	22.4	22.4	22.4	63	11.7	0	1	90	0.00	30.419 
17:50	22.2	22.2	22.2	64	11.9	0	2	90	0.00	30.419 
17:55	21.9	21.9	21.9	64	11.6	0	0	---	0.00	30.419 
18:00	21.8	21.8	21.8	64	11.5	0	2	90	0.00	30.410 
18:05	21.6	21.6	21.6	65	11.7	0	1	90	0.00	30.410 
18:10	21.4	21.4	21.4	65	11.5	0	1	90	0.00	30.410 
18:15	21.3	21.3	21.3	65	11.4	0	2	90	0.00	30.417 
18:20	21.3	21.3	21.3	65	11.4	0	1	90	0.00	30.417 
18:25	21.1	21.1	21.1	66	11.5	0	2	90	0.00	30.417 
18:30	21.0	21.0	21.0	66	11.5	0	2	90	0.00	30.407 
18:35	21.1	21.1	21.1	66	11.5	0	2	90	0.00	30.407 
18:40	21.0	21.0	21.0	66	11.5	0	1	90	0.00	30.407 
18:45	21.0	21.0	21.0	66	11.5	0	2	90	0.00	30.404 
18:50	21.0	21.0	21.0	66	11.5	0	1	90	0.00	30.404 
18:55	20.8	20.8	20.8	66	11.3	0	1	90	0.00	30.404 
19:00	20.6	20.6	20.6	66	11.1	0	2	90	0.00	30.400 
19:05	20.6	20.6	20.6	67	11.4	0	2	90	0.00	30.400 
19:10	20.5	20.5	20.5	67	11.3	0	1	90	0.00	30.400 
19:15	20.5	20.5	20.5	67	11.3	0	1	90	0.00	30.392 
19:20	20.5	20.5	20.5	67	11.3	0	1	90	0.00	30.392 
19:25	20.3	20.3	20.3	67	11.1	0	2	90	0.00	30.392 
19:30	20.3	20.3	20.3	67	11.1	0	1	90	0.00	30.390 
19:35	20.2	20.2	20.2	67	11.0	0	2	90	0.00	30.390 
19:40	20.2	20.2	20.2	67	11.0	0	2	90	0.00	30.390 
19:45	20.0	20.0	20.0	68	11.2	0	1	90	0.00	30.382 
19:50	20.0	20.0	20.0	68	11.2	0	2	90	0.00	30.382 
19:55	20.0	20.0	20.0	68	11.2	0	3	90	0.00	30.382 
20:00	20.0	20.0	20.0	68	11.2	0	3	90	0.00	30.375 
20:05	20.0	20.0	20.0	68	11.2	0	2	90	0.00	30.375 
20:10	20.0	20.0	20.0	69	11.5	1	2	90	0.00	30.375 
20:15	20.2	20.2	20.2	69	11.7	1	3	90	0.00	30.356 
20:20	20.2	20.2	20.2	69	11.7	1	2	90	0.00	30.356 
20:25	20.3	20.3	20.3	70	12.1	1	3	90	0.00	30.356 
20:30	20.3	20.3	20.3	71	12.4	0	3	90	0.00	30.358 
20:35	20.3	20.3	20.3	72	12.7	1	4	90	0.00	30.358 
20:40	20.3	20.3	20.3	72	12.7	0	2	90	0.00	30.358 
20:45	20.2	20.2	20.2	72	12.6	0	3	90	0.00	30.361 
20:50	20.2	20.2	20.2	72	12.6	0	2	90	0.00	30.361 
20:55	20.0	20.0	20.0	73	12.8	1	3	90	0.00	30.361 
21:00	20.0	20.0	20.0	73	12.8	0	2	90	0.00	30.358 
21:05	19.9	19.9	19.9	73	12.7	1	3	90	0.00	30.358 
21:10	19.9	19.9	19.9	73	12.7	0	2	90	0.00	30.358 
21:15	19.9	19.9	19.9	73	12.7	1	3	90	0.00	30.352 
21:20	19.7	19.7	19.7	72	12.2	0	1	90	0.00	30.352 
21:25	19.7	19.7	19.7	73	12.5	0	2	90	0.00	30.352 
21:30	19.7	19.7	19.7	72	12.2	0	2	90	0.00	30.355 
21:35	19.7	19.7	19.7	72	12.2	0	2	90	0.00	30.355 
21:40	19.5	19.5	19.5	72	12.0	0	2	90	0.00	30.355 
21:45	19.5	19.5	19.5	72	12.0	1	3	90	0.00	30.346 
21:50	19.4	19.4	19.4	72	11.9	1	2	90	0.00	30.346 
21:55	19.4	19.4	19.4	72	11.9	0	2	90	0.00	30.346 
22:00	19.2	19.2	19.2	72	11.7	0	2	90	0.00	30.335 
22:05	19.2	19.2	19.2	72	11.7	0	2	90	0.00	30.335 
22:10	19.1	19.1	19.1	72	11.6	0	2	90	0.00	30.335 
22:15	19.1	19.1	19.1	72	11.6	1	4	90	0.00	30.309 
22:20	19.4	19.4	19.4	72	11.9	1	4	90	0.00	30.309 
22:25	19.5	19.5	19.5	71	11.7	1	3	90	0.00	30.309 
22:30	19.5	19.5	19.5	71	11.7	0	2	90	0.00	30.301 
22:35	19.7	19.7	19.7	70	11.5	1	2	90	0.00	30.301 
22:40	19.7	19.7	19.7	70	11.5	1	2	90	0.00	30.301 
22:45	20.0	20.0	20.0	70	11.8	1	4	90	0.00	30.287 
22:50	20.2	20.2	20.2	69	11.7	2	5	135	0.00	30.287 
22:55	20.3	20.3	20.3	69	11.8	1	4	90	0.00	30.287 
23:00	20.5	20.5	20.5	68	11.6	1	3	112	0.00	30.286 
23:05	20.3	20.3	20.3	68	11.5	0	1	112	0.00	30.286 
23:10	20.2	20.2	20.2	69	11.7	1	3	112	0.00	30.286 
23:15	20.3	20.3	20.3	69	11.8	2	3	112	0.00	30.270 
23:20	20.5	20.5	20.5	69	12.0	2	5	112	0.00	30.270 
23:25	20.5	20.5	20.5	69	12.0	1	3	112	0.00	30.270 
23:30	20.5	20.5	20.5	69	12.0	1	4	112	0.00	30.263 
23:35	20.5	20.5	20.5	69	12.0	1	3	112	0.00	30.263 
23:40	20.5	20.5	20.5	70	12.3	0	2	112	0.00	30.263 
23:45	20.3	20.3	20.3	70	12.1	0	2	112	0.00	30.255 
23:50	20.2	20.2	20.2	71	12.3	0	2	112	0.00	30.255 
23:55	20.2	20.2	20.2	71	12.3	0	2	112	0.00	30.255 

CoCoRaHS
IN-AL-39
A2 Web Hosting
Creative Commons License
GoDaddy
search engine by freefind advanced

loaded 2018-11-16 00:41:01 • last modified 2010-11-18 10:43:29
Privacy PolicyDisclaimer
• wx.awcolley.com is powered by PmWiki v.2002016 •
• all content (unless otherwise noted) © 2018 A W Colley